Time;durP1;ratioP1;P1;durP2;ratioP2;P2;SDS_P1;SDS_P2;PMS_P1;PMS_P2;Temp;Humidity;BMP_temperature;BMP_pressure;BME280_temperature;BME280_humidity;BME280_pressure;Samples;Min_cycle;Max_cycle;Signal;HPM_P1;HPM_P2
2021/06/13 00:06:03;;;;;;;7.33;2.70;;;;;;;23.78;35.57;101377.94;31232780;28;20306;-65
2021/06/13 00:21:04;;;;;;;6.05;2.45;;;;;;;23.82;35.57;101389.06;31216840;28;20350;-65
2021/06/13 00:36:05;;;;;;;6.37;2.50;;;;;;;23.83;35.80;101404.03;31247011;28;20111;-64
2021/06/13 00:51:06;;;;;;;4.55;2.35;;;;;;;23.86;35.79;101413.53;31247489;28;20291;-65
2021/06/13 01:06:07;;;;;;;4.50;2.20;;;;;;;23.88;35.56;101422.19;31227609;28;20399;-65
2021/06/13 01:21:11;;;;;;;4.37;2.33;;;;;;;23.90;35.53;101428.19;31243608;28;20033;-64
2021/06/13 01:36:12;;;;;;;4.55;2.38;;;;;;;23.90;35.63;101444.94;31158533;28;20786;-64
2021/06/13 01:51:13;;;;;;;5.13;2.17;;;;;;;23.92;35.47;101447.47;31084338;28;20038;-64
2021/06/13 02:06:14;;;;;;;4.80;2.00;;;;;;;23.93;35.52;101465.88;31116854;28;20300;-64
2021/06/13 02:21:15;;;;;;;4.57;2.47;;;;;;;23.94;35.30;101474.69;31113962;28;20301;-64
2021/06/13 02:36:17;;;;;;;4.40;2.03;;;;;;;23.96;35.47;101496.59;31197815;28;20060;-64
2021/06/13 02:51:20;;;;;;;4.75;2.33;;;;;;;23.95;35.57;101506.41;31236964;28;20296;-64
2021/06/13 03:06:21;;;;;;;6.40;2.58;;;;;;;23.98;35.50;101521.19;31203827;28;20472;-65
2021/06/13 03:21:22;;;;;;;4.85;2.30;;;;;;;24.01;35.46;101544.81;31235419;28;20076;-64
2021/06/13 03:36:23;;;;;;;3.83;1.93;;;;;;;24.03;35.42;101564.13;31212680;28;20033;-65
2021/06/13 03:51:24;;;;;;;4.88;2.03;;;;;;;24.06;35.37;101579.75;31222050;28;20778;-63
2021/06/13 04:06:25;;;;;;;4.25;2.03;;;;;;;24.08;35.31;101591.06;31219745;28;20033;-64
2021/06/13 04:21:26;;;;;;;4.07;2.03;;;;;;;24.12;35.29;101597.78;31218662;28;20099;-64
2021/06/13 04:36:27;;;;;;;3.50;2.03;;;;;;;24.19;35.40;101590.91;31232699;28;20058;-65
2021/06/13 04:51:28;;;;;;;5.33;1.97;;;;;;;24.24;35.15;101617.84;31249070;28;20291;-64
2021/06/13 05:06:29;;;;;;;4.18;2.13;;;;;;;24.22;35.30;101625.13;31246461;28;20307;-64
2021/06/13 05:21:30;;;;;;;4.23;1.70;;;;;;;24.22;35.65;101638.41;31227479;28;20044;-64
2021/06/13 05:36:31;;;;;;;4.07;2.10;;;;;;;24.23;35.58;101645.41;31243537;28;20647;-65
2021/06/13 05:51:32;;;;;;;4.00;1.67;;;;;;;24.30;35.42;101661.59;31223614;28;20316;-64
2021/06/13 06:06:33;;;;;;;4.63;2.05;;;;;;;24.39;35.37;101683.81;31221974;28;20698;-65
2021/06/13 06:21:34;;;;;;;3.87;1.80;;;;;;;24.49;35.19;101697.94;31241793;28;20497;-65
2021/06/13 06:36:35;;;;;;;5.17;2.07;;;;;;;24.47;35.38;101699.91;31239339;28;20296;-65
2021/06/13 06:51:36;;;;;;;4.03;2.10;;;;;;;24.54;35.39;101714.28;31236551;28;20308;-63
2021/06/13 07:06:37;;;;;;;5.17;1.97;;;;;;;24.62;35.10;101724.19;31254763;28;20306;-64
2021/06/13 07:21:38;;;;;;;7.77;2.60;;;;;;;23.23;32.72;101730.56;31261186;28;20304;-64
2021/06/13 07:36:39;;;;;;;8.20;3.13;;;;;;;22.64;33.40;101739.19;31237838;28;20304;-63
2021/06/13 07:51:40;;;;;;;5.53;2.80;;;;;;;23.08;35.16;101756.59;31242663;28;20314;-63
2021/06/13 08:06:41;;;;;;;5.97;2.33;;;;;;;23.88;34.47;101778.75;31252389;28;20295;-62
2021/06/13 08:21:42;;;;;;;5.47;2.50;;;;;;;24.32;34.39;101786.31;31254917;28;20297;-62
2021/06/13 08:36:43;;;;;;;7.73;2.53;;;;;;;24.46;34.64;101792.06;31212033;28;20291;-63
2021/06/13 08:51:45;;;;;;;7.47;2.70;;;;;;;24.72;34.80;101815.41;31201026;28;20296;-62
2021/06/13 09:06:46;;;;;;;7.22;2.83;;;;;;;24.61;31.52;101823.53;31151402;28;20391;-64
2021/06/13 09:21:47;;;;;;;5.60;2.33;;;;;;;23.31;32.54;101834.16;31159888;28;20041;-60
2021/06/13 09:36:48;;;;;;;5.90;2.47;;;;;;;22.90;34.17;101861.53;31199204;28;20296;-62
2021/06/13 09:51:52;;;;;;;8.13;2.97;;;;;;;22.94;34.79;101873.59;31194734;28;20296;-63
2021/06/13 10:06:55;;;;;;;4.90;2.30;;;;;;;23.91;33.66;101862.63;31209251;28;20288;-65
2021/06/13 10:21:57;;;;;;;6.03;2.60;;;;;;;24.73;32.17;101850.81;31154549;28;20041;-65
2021/06/13 10:37:01;;;;;;;5.00;2.67;;;;;;;24.64;32.43;101855.13;31174120;28;20095;-67
2021/06/13 10:52:12;;;;;;;7.20;2.80;;;;;;;24.39;33.14;101880.44;31194150;28;20043;-66
2021/06/13 11:07:34;;;;;;;8.63;3.10;;;;;;;24.43;33.55;101885.31;31237703;28;20126;-63
2021/06/13 11:22:35;;;;;;;13.10;3.95;;;;;;;24.35;35.05;101902.94;31264465;28;20041;-65
2021/06/13 11:37:36;;;;;;;12.70;3.53;;;;;;;24.59;34.33;101906.06;31204333;28;20099;-64
2021/06/13 11:52:59;;;;;;;10.43;3.80;;;;;;;24.84;34.08;101903.81;31254099;28;20296;-64
2021/06/13 12:08:00;;;;;;;10.80;3.70;;;;;;;25.24;33.56;101908.97;31220052;28;20296;-63
2021/06/13 12:23:06;;;;;;;11.27;3.50;;;;;;;25.10;33.72;101898.72;31234470;28;20052;-65
2021/06/13 12:38:11;;;;;;;7.00;3.25;;;;;;;25.31;33.45;101890.59;31230643;28;20299;-62
2021/06/13 12:53:15;;;;;;;6.78;3.25;;;;;;;25.36;33.03;101893.66;31231126;28;20399;-62
2021/06/13 13:08:17;;;;;;;5.20;2.97;;;;;;;25.20;32.61;101902.25;31211336;28;20041;-64
2021/06/13 13:23:18;;;;;;;5.43;3.08;;;;;;;25.23;33.09;101878.00;31227576;28;20450;-64
2021/06/13 13:38:31;;;;;;;5.70;2.87;;;;;;;25.10;33.51;101874.78;31224606;28;20048;-65
2021/06/13 13:53:46;;;;;;;6.65;3.13;;;;;;;25.11;33.07;101859.69;31224314;28;20276;-65
2021/06/13 14:08:48;;;;;;;5.55;2.80;;;;;;;25.01;32.68;101857.88;31239268;28;20038;-66
2021/06/13 14:23:49;;;;;;;6.18;2.83;;;;;;;24.94;33.12;101861.25;31238710;28;20025;-64
2021/06/13 14:38:53;;;;;;;6.80;3.07;;;;;;;24.88;33.00;101852.88;31219979;28;20052;-63
2021/06/13 14:53:54;;;;;;;7.67;3.53;;;;;;;24.79;32.78;101848.41;31223094;28;20272;-65
2021/06/13 15:08:55;;;;;;;6.17;3.20;;;;;;;24.77;32.73;101862.84;31206449;28;20037;-63
2021/06/13 15:23:56;;;;;;;6.85;3.65;;;;;;;24.63;29.80;101845.50;31243077;28;20767;-60
2021/06/13 15:38:58;;;;;;;6.28;4.25;;;;;;;23.94;29.43;101833.97;31258050;28;20511;-61
2021/06/13 15:53:59;;;;;;;6.13;3.75;;;;;;;23.95;29.12;101835.66;31247584;28;20036;-60
2021/06/13 16:09:01;;;;;;;7.03;3.53;;;;;;;23.99;28.56;101823.78;31250052;28;20450;-61
2021/06/13 16:24:01;;;;;;;5.80;3.65;;;;;;;23.93;28.99;101816.34;31210684;28;20025;-63
2021/06/13 16:39:04;;;;;;;5.93;3.40;;;;;;;23.70;29.12;101805.09;31238096;28;20215;-63
2021/06/13 16:54:05;;;;;;;8.05;3.03;;;;;;;23.44;29.74;101806.59;31207265;28;20475;-63
2021/06/13 17:09:06;;;;;;;25.53;15.67;;;;;;;23.24;30.81;101803.84;31237824;28;20040;-64
2021/06/13 17:24:09;;;;;;;7.30;4.00;;;;;;;23.30;30.46;101821.06;31237931;28;20283;-64
2021/06/13 17:39:10;;;;;;;8.00;3.80;;;;;;;23.12;31.14;101826.13;31217490;28;20041;-63
2021/06/13 17:54:12;;;;;;;10.68;4.28;;;;;;;23.17;31.39;101827.41;31187463;28;20041;-63
2021/06/13 18:09:13;;;;;;;9.43;3.90;;;;;;;23.30;32.23;101819.25;31212814;28;20041;-63
2021/06/13 18:24:14;;;;;;;10.32;4.45;;;;;;;23.08;32.39;101817.59;31228645;28;20492;-62
2021/06/13 18:39:15;;;;;;;8.93;3.43;;;;;;;22.96;32.23;101823.91;31186215;28;20050;-62
2021/06/13 18:54:16;;;;;;;9.60;3.88;;;;;;;22.76;32.45;101821.13;31194735;28;20357;-63
2021/06/13 19:09:17;;;;;;;7.47;4.40;;;;;;;22.62;32.58;101840.00;31209673;28;20029;-58
2021/06/13 19:24:18;;;;;;;9.20;3.83;;;;;;;22.44;32.89;101849.50;31252491;28;20475;-57
2021/06/13 19:39:19;;;;;;;7.73;3.70;;;;;;;22.24;33.30;101862.59;31245588;28;20057;-59
2021/06/13 19:54:21;;;;;;;8.07;3.87;;;;;;;22.33;34.41;101863.63;31251820;28;20288;-63
2021/06/13 20:09:21;;;;;;;9.60;4.25;;;;;;;22.90;34.27;101867.69;31250394;28;20326;-62
2021/06/13 20:24:22;;;;;;;7.70;3.67;;;;;;;23.21;34.62;101860.66;31252738;28;20021;-60
2021/06/13 20:39:24;;;;;;;7.83;3.67;;;;;;;23.40;34.97;101856.41;31244032;28;20296;-61
2021/06/13 20:54:25;;;;;;;6.47;3.22;;;;;;;23.53;34.91;101869.47;31208979;28;20633;-63
2021/06/13 21:09:26;;;;;;;6.00;3.37;;;;;;;23.63;35.45;101871.16;31246041;28;20056;-62
2021/06/13 21:24:27;;;;;;;6.65;3.38;;;;;;;23.71;35.84;101865.19;31225052;28;20782;-61
2021/06/13 21:39:28;;;;;;;7.37;3.80;;;;;;;23.57;34.25;101866.41;31235462;28;20046;-59
2021/06/13 21:54:30;;;;;;;12.13;4.13;;;;;;;23.45;34.02;101886.03;31238385;28;20295;-59
2021/06/13 22:09:31;;;;;;;9.95;3.95;;;;;;;23.40;35.06;101880.28;31223711;28;20303;-58
2021/06/13 22:24:31;;;;;;;8.97;3.60;;;;;;;23.42;34.97;101879.19;31222612;28;20044;-62
2021/06/13 22:39:32;;;;;;;7.70;3.20;;;;;;;23.41;35.56;101885.47;31220984;28;20308;-62
2021/06/13 22:54:33;;;;;;;7.43;3.97;;;;;;;23.42;35.90;101886.31;31235086;28;20276;-62
2021/06/13 23:09:34;;;;;;;6.40;3.47;;;;;;;23.41;35.70;101884.63;31226294;28;20306;-62
2021/06/13 23:24:35;;;;;;;6.10;3.33;;;;;;;23.39;35.92;101892.72;31234062;28;20615;-64
2021/06/13 23:39:36;;;;;;;6.93;3.30;;;;;;;23.38;36.00;101893.69;31233068;28;20312;-59
2021/06/13 23:54:38;;;;;;;7.10;3.77;;;;;;;23.37;36.03;101899.97;31234363;28;20633;-59
